Time;durP1;ratioP1;P1;durP2;ratioP2;P2;SDS_P1;SDS_P2;PMS_P1;PMS_P2;Temp;Humidity;BMP_temperature;BMP_pressure;BME280_temperature;BME280_humidity;BME280_pressure;Samples;Min_cycle;Max_cycle;Signal;HPM_P1;HPM_P2
2023/10/07 00:00:47;;;;;;;7.20;4.60;;;;;;;;;;4982097;28;20304;-72
2023/10/07 00:03:18;;;;;;;8.75;4.05;;;;;;;;;;4989765;28;20137;-72
2023/10/07 00:05:46;;;;;;;5.68;4.30;;;;;;;;;;4983026;28;20163;-71
2023/10/07 00:08:21;;;;;;;6.55;4.65;;;;;;;;;;4981028;28;21047;-71
2023/10/07 00:10:51;;;;;;;6.30;3.92;;;;;;;;;;4981182;28;20078;-71
2023/10/07 00:13:20;;;;;;;6.85;4.07;;;;;;;;;;4981955;28;20042;-72
2023/10/07 00:15:48;;;;;;;6.63;3.85;;;;;;;;;;4982006;28;20050;-70
2023/10/07 00:18:14;;;;;;;7.43;4.50;;;;;;;;;;4979901;28;20053;-71
2023/10/07 00:20:42;;;;;;;6.93;4.00;;;;;;;;;;4981094;28;20046;-70
2023/10/07 00:23:15;;;;;;;5.70;3.95;;;;;;;;;;4982298;28;20046;-71
2023/10/07 00:25:41;;;;;;;5.88;3.90;;;;;;;;;;4982008;28;20388;-68
2023/10/07 00:28:31;;;;;;;5.00;3.67;;;;;;;;;;4980640;28;20100;-71
2023/10/07 00:30:55;;;;;;;6.88;4.25;;;;;;;;;;4980086;28;20046;-69
2023/10/07 00:33:21;;;;;;;7.43;4.22;;;;;;;;;;4996050;28;20045;-68
2023/10/07 00:35:53;;;;;;;6.55;4.38;;;;;;;;;;4980544;28;20510;-69
2023/10/07 00:38:23;;;;;;;7.75;4.03;;;;;;;;;;4979470;28;20051;-67
2023/10/07 00:40:53;;;;;;;5.22;3.90;;;;;;;;;;4982024;28;20495;-68
2023/10/07 00:43:26;;;;;;;7.10;4.15;;;;;;;;;;4981935;28;20096;-68
2023/10/07 00:48:56;;;;;;;6.55;3.83;;;;;;;;;;4978782;28;20761;-71
2023/10/07 00:51:34;;;;;;;5.65;3.50;;;;;;;;;;4981143;28;20046;-70
2023/10/07 00:54:15;;;;;;;4.38;3.17;;;;;;;;;;4978305;28;20112;-69
2023/10/07 00:56:43;;;;;;;5.57;4.10;;;;;;;;;;4979597;28;20508;-68
2023/10/07 00:59:10;;;;;;;7.75;3.67;;;;;;;;;;4979442;28;20049;-68
2023/10/07 01:01:36;;;;;;;5.15;3.53;;;;;;;;;;4980633;28;20441;-67
2023/10/07 01:04:06;;;;;;;7.97;3.60;;;;;;;;;;4978051;28;20074;-70
2023/10/07 01:06:32;;;;;;;5.97;3.50;;;;;;;;;;4979955;28;20046;-69
2023/10/07 01:09:07;;;;;;;5.38;3.55;;;;;;;;;;4980398;28;20507;-68
2023/10/07 01:11:37;;;;;;;7.72;4.03;;;;;;;;;;4995226;28;20125;-69
2023/10/07 01:14:05;;;;;;;6.68;3.72;;;;;;;;;;4987181;28;20046;-66
2023/10/07 01:16:40;;;;;;;6.35;3.63;;;;;;;;;;4980690;28;20042;-66
2023/10/07 01:19:19;;;;;;;5.70;4.00;;;;;;;;;;4980964;28;20129;-67
2023/10/07 01:22:11;;;;;;;5.75;3.53;;;;;;;;;;4980111;28;20092;-66
2023/10/07 01:27:17;;;;;;;8.68;4.13;;;;;;;;;;4977837;28;20052;-70
2023/10/07 01:29:43;;;;;;;5.07;3.35;;;;;;;;;;4979597;28;20049;-70
2023/10/07 01:32:15;;;;;;;6.95;3.80;;;;;;;;;;4976814;28;20125;-69
2023/10/07 01:34:47;;;;;;;7.55;3.80;;;;;;;;;;4980428;28;20058;-70
2023/10/07 01:37:21;;;;;;;5.82;3.63;;;;;;;;;;4978856;28;20313;-69
2023/10/07 01:39:49;;;;;;;7.15;4.00;;;;;;;;;;4978582;28;20652;-68
2023/10/07 01:42:23;;;;;;;5.28;3.80;;;;;;;;;;4978093;28;20589;-70
2023/10/07 01:44:55;;;;;;;4.50;3.63;;;;;;;;;;4978078;28;20047;-70
2023/10/07 01:47:29;;;;;;;5.00;4.00;;;;;;;;;;4978032;28;20050;-69
2023/10/07 01:49:56;;;;;;;8.23;4.10;;;;;;;;;;4977086;28;20129;-68
2023/10/07 01:52:26;;;;;;;6.30;3.85;;;;;;;;;;4978578;28;20621;-69
2023/10/07 01:54:54;;;;;;;8.35;4.10;;;;;;;;;;4979972;28;20050;-68
2023/10/07 01:57:20;;;;;;;7.35;4.55;;;;;;;;;;4979314;28;20046;-67
2023/10/07 01:59:45;;;;;;;6.32;3.78;;;;;;;;;;4979248;28;20092;-68
2023/10/07 02:02:13;;;;;;;7.28;3.80;;;;;;;;;;4980263;28;20054;-69
2023/10/07 02:04:38;;;;;;;4.95;3.67;;;;;;;;;;4979820;28;20046;-69
2023/10/07 02:07:04;;;;;;;7.18;3.60;;;;;;;;;;4979434;28;20038;-69
2023/10/07 02:09:35;;;;;;;7.00;3.90;;;;;;;;;;4978722;28;20042;-69
2023/10/07 02:12:01;;;;;;;10.82;4.00;;;;;;;;;;4993503;28;20531;-68
2023/10/07 02:14:28;;;;;;;6.38;3.83;;;;;;;;;;4979974;28;20069;-67
2023/10/07 02:16:56;;;;;;;6.75;3.80;;;;;;;;;;4978704;28;20060;-70
2023/10/07 02:19:29;;;;;;;7.35;3.85;;;;;;;;;;4988578;28;20046;-69
2023/10/07 02:21:59;;;;;;;5.85;3.47;;;;;;;;;;4962339;28;20043;-69
2023/10/07 02:24:29;;;;;;;6.55;3.95;;;;;;;;;;4978967;28;20120;-69
2023/10/07 02:27:28;;;;;;;4.60;3.55;;;;;;;;;;4978269;28;20042;-69
2023/10/07 02:29:52;;;;;;;5.82;3.45;;;;;;;;;;4979230;28;20083;-74
2023/10/07 02:32:17;;;;;;;9.68;4.03;;;;;;;;;;4978437;28;20054;-68
2023/10/07 02:34:55;;;;;;;6.10;3.90;;;;;;;;;;4995016;28;20042;-70
2023/10/07 02:37:25;;;;;;;5.90;3.70;;;;;;;;;;4980478;28;20876;-68
2023/10/07 02:40:22;;;;;;;5.75;3.53;;;;;;;;;;4977914;28;20054;-74
2023/10/07 02:42:49;;;;;;;6.55;4.18;;;;;;;;;;4977886;28;20096;-70
2023/10/07 02:47:47;;;;;;;4.32;3.38;;;;;;;;;;4979235;28;20045;-70
2023/10/07 02:50:13;;;;;;;8.07;3.53;;;;;;;;;;4978698;28;20124;-69
2023/10/07 02:52:39;;;;;;;5.72;3.10;;;;;;;;;;4979277;28;20057;-68
2023/10/07 02:55:29;;;;;;;4.93;3.10;;;;;;;;;;4977400;28;20132;-70
2023/10/07 02:57:56;;;;;;;5.40;3.38;;;;;;;;;;4982275;28;20046;-69
2023/10/07 03:00:35;;;;;;;5.43;3.67;;;;;;;;;;4983524;28;20619;-69
2023/10/07 03:05:46;;;;;;;4.82;3.22;;;;;;;;;;4983330;28;20057;-69
2023/10/07 03:08:20;;;;;;;6.07;3.95;;;;;;;;;;4982121;28;20090;-69
2023/10/07 03:11:09;;;;;;;5.50;4.03;;;;;;;;;;4981512;28;20061;-70
2023/10/07 03:13:37;;;;;;;5.38;3.92;;;;;;;;;;4979868;28;20125;-70
2023/10/07 03:24:07;;;;;;;5.90;4.15;;;;;;;;;;4980494;28;20057;-70
2023/10/07 03:26:32;;;;;;;5.50;3.85;;;;;;;;;;4982570;28;20173;-69
2023/10/07 03:29:04;;;;;;;6.28;3.75;;;;;;;;;;4991056;28;20227;-68
2023/10/07 03:31:47;;;;;;;4.75;3.45;;;;;;;;;;4981329;28;20042;-67
2023/10/07 03:34:16;;;;;;;7.95;3.97;;;;;;;;;;4980858;28;20047;-69
2023/10/07 03:36:44;;;;;;;7.63;4.03;;;;;;;;;;4981016;28;20557;-68
2023/10/07 03:41:47;;;;;;;8.27;3.47;;;;;;;;;;4981956;28;20042;-67
2023/10/07 03:44:18;;;;;;;9.30;4.07;;;;;;;;;;4981028;28;20049;-68
2023/10/07 03:46:48;;;;;;;6.95;3.65;;;;;;;;;;4979999;28;20061;-68
2023/10/07 03:49:21;;;;;;;6.18;4.22;;;;;;;;;;4981770;28;20145;-68
2023/10/07 03:51:48;;;;;;;4.97;3.85;;;;;;;;;;4981559;28;20622;-67
2023/10/07 03:54:24;;;;;;;5.80;4.22;;;;;;;;;;4979585;28;20042;-68
2023/10/07 03:56:50;;;;;;;9.32;4.18;;;;;;;;;;4979776;28;20089;-69
2023/10/07 03:59:15;;;;;;;9.05;4.60;;;;;;;;;;4980860;28;20149;-67
2023/10/07 04:01:42;;;;;;;10.23;4.55;;;;;;;;;;4980952;28;20718;-68
2023/10/07 04:04:11;;;;;;;6.82;4.40;;;;;;;;;;4979543;28;20407;-67
2023/10/07 04:06:40;;;;;;;6.32;4.25;;;;;;;;;;4981282;28;20150;-68
2023/10/07 04:09:07;;;;;;;6.30;4.10;;;;;;;;;;4981076;28;20125;-68
2023/10/07 04:11:37;;;;;;;5.90;4.13;;;;;;;;;;4981017;28;20514;-67
2023/10/07 04:14:19;;;;;;;8.60;4.10;;;;;;;;;;4979320;28;20054;-67
2023/10/07 04:16:52;;;;;;;6.57;4.57;;;;;;;;;;4979133;28;20061;-68
2023/10/07 04:21:50;;;;;;;7.80;4.40;;;;;;;;;;4981057;28;20038;-69
2023/10/07 04:24:18;;;;;;;6.60;4.35;;;;;;;;;;4978507;28;20035;-68
2023/10/07 04:26:54;;;;;;;8.80;4.47;;;;;;;;;;4980128;28;20042;-69
2023/10/07 04:29:24;;;;;;;6.93;4.55;;;;;;;;;;4978528;28;20042;-68
2023/10/07 04:31:51;;;;;;;6.22;4.22;;;;;;;;;;4980755;28;20105;-68
2023/10/07 04:34:21;;;;;;;5.88;4.10;;;;;;;;;;4980330;28;20038;-69
2023/10/07 04:37:11;;;;;;;4.93;4.28;;;;;;;;;;4980953;28;20046;-67
2023/10/07 04:42:23;;;;;;;7.75;4.10;;;;;;;;;;4956559;28;20141;-69
2023/10/07 04:50:08;;;;;;;4.45;3.63;;;;;;;;;;4940771;28;1053257;-70
2023/10/07 04:52:40;;;;;;;4.95;3.83;;;;;;;;;;4981187;28;20049;-68
2023/10/07 04:55:13;;;;;;;6.70;3.80;;;;;;;;;;4981087;28;20058;-70
2023/10/07 04:57:44;;;;;;;6.70;3.72;;;;;;;;;;4980542;28;20042;-68
2023/10/07 05:02:59;;;;;;;5.13;3.78;;;;;;;;;;4981525;28;20046;-69
2023/10/07 05:05:28;;;;;;;7.55;4.50;;;;;;;;;;4981465;28;20566;-68
2023/10/07 05:07:58;;;;;;;5.85;3.63;;;;;;;;;;4980028;28;20104;-69
2023/10/07 05:10:28;;;;;;;5.78;4.00;;;;;;;;;;4980910;28;20053;-70
2023/10/07 05:12:55;;;;;;;6.38;3.78;;;;;;;;;;4979363;28;20114;-68
2023/10/07 05:15:25;;;;;;;7.22;4.20;;;;;;;;;;4979127;28;20446;-69
2023/10/07 05:17:52;;;;;;;8.82;3.67;;;;;;;;;;4979924;28;20046;-70
2023/10/07 05:20:28;;;;;;;5.72;3.45;;;;;;;;;;4963437;28;20058;-72
2023/10/07 05:22:55;;;;;;;4.75;3.47;;;;;;;;;;4980492;28;20061;-69
2023/10/07 05:25:21;;;;;;;3.78;3.20;;;;;;;;;;4981682;28;20050;-70
2023/10/07 05:27:47;;;;;;;8.05;3.72;;;;;;;;;;4980791;28;20081;-70
2023/10/07 05:30:15;;;;;;;5.93;3.63;;;;;;;;;;4978510;28;20228;-71
2023/10/07 05:32:42;;;;;;;7.93;4.13;;;;;;;;;;4980761;28;20526;-70
2023/10/07 05:35:08;;;;;;;6.65;3.80;;;;;;;;;;4979225;28;20077;-68
2023/10/07 05:37:34;;;;;;;5.03;3.20;;;;;;;;;;4979632;28;20507;-68
2023/10/07 05:40:02;;;;;;;5.25;3.40;;;;;;;;;;4977947;28;20046;-68
2023/10/07 05:42:27;;;;;;;5.80;3.47;;;;;;;;;;4979808;28;20073;-69
2023/10/07 05:44:53;;;;;;;6.22;3.75;;;;;;;;;;4978126;28;20070;-71
2023/10/07 05:47:18;;;;;;;4.15;3.35;;;;;;;;;;4977457;28;20085;-70
2023/10/07 05:49:44;;;;;;;8.88;4.28;;;;;;;;;;4980097;28;20034;-70
2023/10/07 05:52:09;;;;;;;6.28;3.97;;;;;;;;;;4972319;28;20055;-69
2023/10/07 05:54:35;;;;;;;9.10;3.70;;;;;;;;;;4978420;28;20148;-69
2023/10/07 05:57:04;;;;;;;6.00;3.95;;;;;;;;;;4991131;28;20042;-69
2023/10/07 05:59:33;;;;;;;6.38;3.83;;;;;;;;;;4976828;28;20050;-68
2023/10/07 06:02:01;;;;;;;6.40;3.83;;;;;;;;;;4975597;28;20049;-69
2023/10/07 06:04:28;;;;;;;6.38;4.18;;;;;;;;;;4977104;28;20037;-71
2023/10/07 06:06:53;;;;;;;10.52;4.13;;;;;;;;;;4976747;28;20686;-70
2023/10/07 06:09:21;;;;;;;6.25;4.30;;;;;;;;;;4976618;28;20050;-68
2023/10/07 06:11:48;;;;;;;6.65;4.10;;;;;;;;;;4977769;28;20510;-70
2023/10/07 06:14:18;;;;;;;5.70;3.83;;;;;;;;;;4975513;28;21279;-69
2023/10/07 06:16:44;;;;;;;6.60;4.30;;;;;;;;;;4977936;28;20057;-70
2023/10/07 06:19:13;;;;;;;7.20;3.88;;;;;;;;;;4976507;28;20069;-69
2023/10/07 06:21:50;;;;;;;4.68;3.05;;;;;;;;;;4976810;28;20042;-70
2023/10/07 06:24:21;;;;;;;5.30;3.35;;;;;;;;;;4975646;28;20061;-71
2023/10/07 06:26:48;;;;;;;5.18;3.47;;;;;;;;;;4975976;28;20447;-71
2023/10/07 06:29:18;;;;;;;6.55;4.25;;;;;;;;;;4975152;28;21043;-71
2023/10/07 06:32:13;;;;;;;14.23;3.53;;;;;;;;;;4977142;28;20065;-71
2023/10/07 06:34:41;;;;;;;4.90;3.67;;;;;;;;;;4974838;28;20042;-72
2023/10/07 06:37:07;;;;;;;7.03;3.83;;;;;;;;;;4975476;28;20050;-71
2023/10/07 06:39:32;;;;;;;4.90;3.20;;;;;;;;;;4975518;28;21177;-73
2023/10/07 06:41:58;;;;;;;9.55;3.08;;;;;;;;;;4975932;28;20049;-74
2023/10/07 06:44:30;;;;;;;3.97;3.17;;;;;;;;;;4991445;28;20046;-74
2023/10/07 06:46:56;;;;;;;7.07;3.00;;;;;;;;;;4975440;28;20046;-74
2023/10/07 06:49:22;;;;;;;6.38;3.22;;;;;;;;;;4974851;28;20030;-74
2023/10/07 06:52:02;;;;;;;4.93;2.67;;;;;;;;;;4976566;28;21014;-74
2023/10/07 06:54:32;;;;;;;10.25;3.08;;;;;;;;;;4990425;28;20050;-74
2023/10/07 06:56:58;;;;;;;4.13;2.70;;;;;;;;;;4976961;28;20502;-73
2023/10/07 06:59:30;;;;;;;4.60;2.80;;;;;;;;;;4975474;28;20054;-70
2023/10/07 07:02:05;;;;;;;5.25;2.78;;;;;;;;;;4991496;28;20042;-71
2023/10/07 07:04:31;;;;;;;3.67;2.65;;;;;;;;;;4976906;28;20049;-71
2023/10/07 07:07:11;;;;;;;4.63;2.88;;;;;;;;;;4976876;28;20089;-70
2023/10/07 07:12:16;;;;;;;6.57;2.92;;;;;;;;;;4976212;28;20046;-70
2023/10/07 07:14:50;;;;;;;4.85;2.70;;;;;;;;;;4975292;28;20042;-71
2023/10/07 07:17:29;;;;;;;6.07;2.85;;;;;;;;;;4976410;28;20038;-73
2023/10/07 07:22:43;;;;;;;6.68;2.88;;;;;;;;;;4975830;28;20129;-73
2023/10/07 07:25:12;;;;;;;3.92;3.00;;;;;;;;;;4976304;28;20057;-73
2023/10/07 07:27:52;;;;;;;4.95;3.22;;;;;;;;;;4976448;28;20050;-73
2023/10/07 07:30:30;;;;;;;12.07;3.13;;;;;;;;;;4974336;28;20057;-72
2023/10/07 07:33:06;;;;;;;3.97;2.75;;;;;;;;;;4978054;28;20522;-73
2023/10/07 07:35:38;;;;;;;7.30;3.08;;;;;;;;;;4976876;28;20053;-73
2023/10/07 07:38:29;;;;;;;4.88;2.78;;;;;;;;;;4974840;28;20050;-71
2023/10/07 07:41:27;;;;;;;8.00;3.20;;;;;;;;;;4976449;28;20101;-71
2023/10/07 07:43:58;;;;;;;9.88;3.08;;;;;;;;;;4980780;28;20046;-71
2023/10/07 07:46:26;;;;;;;3.92;2.85;;;;;;;;;;4978308;28;20080;-71
2023/10/07 07:48:53;;;;;;;4.55;2.65;;;;;;;;;;4980561;28;20050;-70
2023/10/07 07:51:24;;;;;;;4.40;3.03;;;;;;;;;;4978686;28;20046;-70
2023/10/07 07:53:50;;;;;;;4.45;2.63;;;;;;;;;;4980106;28;20149;-71
2023/10/07 07:56:16;;;;;;;3.58;2.80;;;;;;;;;;4979178;28;20112;-71
2023/10/07 07:58:47;;;;;;;6.60;3.00;;;;;;;;;;4979296;28;20046;-71
2023/10/07 08:01:18;;;;;;;4.57;2.60;;;;;;;;;;4979948;28;20057;-71
2023/10/07 08:03:44;;;;;;;5.70;3.05;;;;;;;;;;4977294;28;20054;-72
2023/10/07 08:06:19;;;;;;;3.30;2.47;;;;;;;;;;4974398;28;21046;-71
2023/10/07 08:08:49;;;;;;;4.18;2.67;;;;;;;;;;4979581;28;20650;-72
2023/10/07 08:11:17;;;;;;;4.70;2.90;;;;;;;;;;4980232;28;20049;-72
2023/10/07 08:13:44;;;;;;;4.10;3.00;;;;;;;;;;4979303;28;20054;-72
2023/10/07 08:16:15;;;;;;;7.32;3.53;;;;;;;;;;4979717;28;20117;-72
2023/10/07 08:18:41;;;;;;;4.10;2.75;;;;;;;;;;4979412;28;20104;-70
2023/10/07 08:21:07;;;;;;;6.38;2.63;;;;;;;;;;4980201;28;20062;-72
2023/10/07 08:23:36;;;;;;;4.65;2.70;;;;;;;;;;4980223;28;20042;-67
2023/10/07 08:26:12;;;;;;;4.97;2.53;;;;;;;;;;4978620;28;20435;-69
2023/10/07 08:28:43;;;;;;;4.20;2.42;;;;;;;;;;4979673;28;20053;-69
2023/10/07 08:31:19;;;;;;;7.97;2.55;;;;;;;;;;4980699;28;20081;-70
2023/10/07 08:34:09;;;;;;;3.97;2.78;;;;;;;;;;4981440;28;20647;-69
2023/10/07 08:36:42;;;;;;;3.58;2.40;;;;;;;;;;4963092;28;20061;-71
2023/10/07 08:39:10;;;;;;;3.80;2.33;;;;;;;;;;4981126;28;20050;-70
2023/10/07 08:41:50;;;;;;;4.25;2.60;;;;;;;;;;4982082;28;20054;-70
2023/10/07 08:44:16;;;;;;;5.72;2.60;;;;;;;;;;4981043;28;20851;-70
2023/10/07 08:46:49;;;;;;;6.00;2.78;;;;;;;;;;4963758;28;20078;-68
2023/10/07 08:49:24;;;;;;;5.78;2.40;;;;;;;;;;4980734;28;20602;-68
2023/10/07 08:51:52;;;;;;;2.95;2.20;;;;;;;;;;4979575;28;20054;-70
2023/10/07 08:54:17;;;;;;;3.25;2.40;;;;;;;;;;4978847;28;20050;-70
2023/10/07 08:56:54;;;;;;;4.75;2.70;;;;;;;;;;4980746;28;20097;-70
2023/10/07 08:59:25;;;;;;;4.60;2.63;;;;;;;;;;4979688;28;20047;-71
2023/10/07 09:01:57;;;;;;;;;;;;;;;;;;4981238;28;20054;-69
2023/10/07 09:04:31;;;;;;;3.45;2.58;;;;;;;;;;4979961;28;19922;-70
2023/10/07 09:07:00;;;;;;;4.35;2.72;;;;;;;;;;4981278;28;20054;-71
2023/10/07 09:09:37;;;;;;;5.05;2.33;;;;;;;;;;4980637;28;20053;-71
2023/10/07 09:12:10;;;;;;;3.67;2.50;;;;;;;;;;4978922;28;20057;-71
2023/10/07 09:14:40;;;;;;;3.95;2.40;;;;;;;;;;4980423;28;20038;-69
2023/10/07 09:17:09;;;;;;;11.35;2.63;;;;;;;;;;4979843;28;20420;-69
2023/10/07 09:19:36;;;;;;;6.50;2.85;;;;;;;;;;4979714;28;20052;-69
2023/10/07 09:22:10;;;;;;;4.53;2.50;;;;;;;;;;4979992;28;20086;-72
2023/10/07 09:24:41;;;;;;;4.28;2.25;;;;;;;;;;4980564;28;20065;-67
2023/10/07 09:27:10;;;;;;;6.05;2.97;;;;;;;;;;4980197;28;20062;-69
2023/10/07 09:29:37;;;;;;;4.20;2.47;;;;;;;;;;4980122;28;20589;-68
2023/10/07 09:32:16;;;;;;;4.32;2.63;;;;;;;;;;4979179;28;20050;-69
2023/10/07 09:34:42;;;;;;;4.03;2.80;;;;;;;;;;4980514;28;20042;-69
2023/10/07 09:37:12;;;;;;;4.22;2.67;;;;;;;;;;4980044;28;20108;-70
2023/10/07 09:39:53;;;;;;;4.55;2.45;;;;;;;;;;4977965;28;20058;-69
2023/10/07 09:42:26;;;;;;;3.33;2.15;;;;;;;;;;4978835;28;20112;-68
2023/10/07 09:45:00;;;;;;;4.07;2.45;;;;;;;;;;4983125;28;20081;-69
2023/10/07 09:47:27;;;;;;;4.88;2.60;;;;;;;;;;4979300;28;20046;-68
2023/10/07 09:49:57;;;;;;;6.60;2.55;;;;;;;;;;4979156;28;20057;-68
2023/10/07 09:52:29;;;;;;;6.20;2.20;;;;;;;;;;4979653;28;20046;-69
2023/10/07 09:55:21;;;;;;;2.25;1.85;;;;;;;;;;4978854;28;20050;-70
2023/10/07 09:57:55;;;;;;;4.10;2.50;;;;;;;;;;4979586;28;20116;-68
2023/10/07 10:03:30;;;;;;;3.08;1.95;;;;;;;;;;4978309;28;20100;-68
2023/10/07 10:06:16;;;;;;;9.10;2.53;;;;;;;;;;4986703;28;20042;-70
2023/10/07 10:09:14;;;;;;;5.45;2.60;;;;;;;;;;4979395;28;20088;-70
2023/10/07 10:16:48;;;;;;;4.13;2.28;;;;;;;;;;4979284;28;20144;-69
2023/10/07 10:19:29;;;;;;;3.03;2.17;;;;;;;;;;4978160;28;20050;-70
2023/10/07 10:21:55;;;;;;;4.43;2.27;;;;;;;;;;4979204;28;20046;-69
2023/10/07 10:24:30;;;;;;;4.43;3.17;;;;;;;;;;4978828;28;20288;-69
2023/10/07 10:27:07;;;;;;;4.60;2.08;;;;;;;;;;4983201;28;20054;-68
2023/10/07 10:29:36;;;;;;;3.65;2.38;;;;;;;;;;4976158;28;20105;-68
2023/10/07 10:32:07;;;;;;;3.10;2.30;;;;;;;;;;4974726;28;20042;-70
2023/10/07 10:34:33;;;;;;;3.53;2.20;;;;;;;;;;4976263;28;20120;-69
2023/10/07 10:36:59;;;;;;;2.45;2.00;;;;;;;;;;4976139;28;20511;-70
2023/10/07 10:39:33;;;;;;;2.97;2.35;;;;;;;;;;4974874;28;20046;-69
2023/10/07 10:42:09;;;;;;;2.90;2.08;;;;;;;;;;4977278;28;20606;-67
2023/10/07 10:44:39;;;;;;;3.30;1.80;;;;;;;;;;4976439;28;20954;-69
2023/10/07 10:47:06;;;;;;;4.25;2.67;;;;;;;;;;4976370;28;20507;-69
2023/10/07 10:49:32;;;;;;;4.68;2.25;;;;;;;;;;4975730;28;20069;-69
2023/10/07 10:51:59;;;;;;;4.47;2.22;;;;;;;;;;4975834;28;20459;-68
2023/10/07 10:54:25;;;;;;;4.80;2.80;;;;;;;;;;4976585;28;20061;-70
2023/10/07 10:56:57;;;;;;;6.03;2.42;;;;;;;;;;4975097;28;20054;-67
2023/10/07 10:59:43;;;;;;;3.72;2.17;;;;;;;;;;4976617;28;20836;-69
2023/10/07 11:02:20;;;;;;;6.47;2.40;;;;;;;;;;4973635;28;20046;-73
2023/10/07 11:04:57;;;;;;;3.13;1.92;;;;;;;;;;4977054;28;20057;-71
2023/10/07 11:07:23;;;;;;;3.03;2.00;;;;;;;;;;4961245;28;20042;-70
2023/10/07 11:09:51;;;;;;;3.58;2.00;;;;;;;;;;4976407;28;20874;-70
2023/10/07 11:12:18;;;;;;;4.65;2.30;;;;;;;;;;4976533;28;20043;-68
2023/10/07 11:14:47;;;;;;;4.85;1.92;;;;;;;;;;4976536;28;20082;-71
2023/10/07 11:17:15;;;;;;;5.22;1.83;;;;;;;;;;4976375;28;20467;-69
2023/10/07 11:19:47;;;;;;;3.15;1.95;;;;;;;;;;4980195;28;20099;-68
2023/10/07 11:22:13;;;;;;;;;;;;;;;;;;4980500;28;20085;-69
2023/10/07 11:24:39;;;;;;;3.00;1.88;;;;;;;;;;4979305;28;19996;-68
2023/10/07 11:27:08;;;;;;;3.45;1.67;;;;;;;;;;4980576;28;20140;-68
2023/10/07 11:29:35;;;;;;;2.75;1.77;;;;;;;;;;4980251;28;20042;-70
2023/10/07 11:32:04;;;;;;;4.60;1.77;;;;;;;;;;4979022;28;20518;-68
2023/10/07 11:34:38;;;;;;;3.78;1.98;;;;;;;;;;4980009;28;20495;-68
2023/10/07 11:37:13;;;;;;;3.78;1.90;;;;;;;;;;4985299;28;20441;-69
2023/10/07 11:39:44;;;;;;;3.45;2.00;;;;;;;;;;4974519;28;20807;-69
2023/10/07 11:42:21;;;;;;;6.13;2.00;;;;;;;;;;4980019;28;20049;-68
2023/10/07 11:44:54;;;;;;;3.47;2.03;;;;;;;;;;4980351;28;20677;-70
2023/10/07 11:47:20;;;;;;;2.38;1.90;;;;;;;;;;4980331;28;20962;-70
2023/10/07 11:49:46;;;;;;;3.72;1.70;;;;;;;;;;4980748;28;20056;-71
2023/10/07 11:52:12;;;;;;;5.55;1.98;;;;;;;;;;4980446;28;20625;-70
2023/10/07 11:54:39;;;;;;;3.35;1.80;;;;;;;;;;4979334;28;20157;-69
2023/10/07 11:57:05;;;;;;;3.30;1.80;;;;;;;;;;4980303;28;20057;-70
2023/10/07 11:59:33;;;;;;;2.67;1.75;;;;;;;;;;4980041;28;21207;-69
2023/10/07 12:02:00;;;;;;;4.43;1.77;;;;;;;;;;4980093;28;20050;-68
2023/10/07 12:04:26;;;;;;;3.22;1.80;;;;;;;;;;4979556;28;20139;-70
2023/10/07 12:06:52;;;;;;;3.88;2.10;;;;;;;;;;4980714;28;20105;-69
2023/10/07 12:09:22;;;;;;;3.10;1.85;;;;;;;;;;4980634;28;20050;-69
2023/10/07 12:11:49;;;;;;;7.25;2.00;;;;;;;;;;4980551;28;20073;-70
2023/10/07 12:14:18;;;;;;;5.20;2.17;;;;;;;;;;4980124;28;20534;-69
2023/10/07 12:16:44;;;;;;;2.75;2.00;;;;;;;;;;4978808;28;20045;-69
2023/10/07 12:19:11;;;;;;;4.30;2.22;;;;;;;;;;4980702;28;20043;-69
2023/10/07 12:21:39;;;;;;;3.47;1.60;;;;;;;;;;4979137;28;20665;-69
2023/10/07 12:24:06;;;;;;;3.15;2.17;;;;;;;;;;4978649;28;20050;-71
2023/10/07 12:26:31;;;;;;;4.70;1.80;;;;;;;;;;4978094;28;20487;-70
2023/10/07 12:28:57;;;;;;;1.88;1.42;;;;;;;;;;4980510;28;20118;-69
2023/10/07 12:31:23;;;;;;;2.78;1.85;;;;;;;;;;4977591;28;20840;-68
2023/10/07 12:33:50;;;;;;;3.22;1.88;;;;;;;;;;4980718;28;20499;-69
2023/10/07 12:36:16;;;;;;;3.08;1.77;;;;;;;;;;4979003;28;20042;-70
2023/10/07 12:38:42;;;;;;;3.45;1.75;;;;;;;;;;4978451;28;20050;-69
2023/10/07 12:41:08;;;;;;;2.63;1.42;;;;;;;;;;4993084;28;20491;-72
2023/10/07 12:43:35;;;;;;;2.50;1.55;;;;;;;;;;4976567;28;20042;-71
2023/10/07 12:46:00;;;;;;;2.67;1.40;;;;;;;;;;4979246;28;20129;-69
2023/10/07 12:48:26;;;;;;;3.67;1.60;;;;;;;;;;4979138;28;20056;-69
2023/10/07 12:50:52;;;;;;;3.42;1.83;;;;;;;;;;4980149;28;20085;-69
2023/10/07 12:53:18;;;;;;;2.13;1.40;;;;;;;;;;4978748;28;20137;-69
2023/10/07 12:55:44;;;;;;;2.08;1.23;;;;;;;;;;4980110;28;20039;-70
2023/10/07 12:58:15;;;;;;;3.47;1.58;;;;;;;;;;4979335;28;20049;-70
2023/10/07 13:00:41;;;;;;;2.22;1.42;;;;;;;;;;4977989;28;20053;-70
2023/10/07 13:03:06;;;;;;;3.78;1.90;;;;;;;;;;4980368;28;20054;-69
2023/10/07 13:05:38;;;;;;;2.60;1.70;;;;;;;;;;4979280;28;20038;-69
2023/10/07 13:08:15;;;;;;;3.22;1.75;;;;;;;;;;4978759;28;20133;-69
2023/10/07 13:10:41;;;;;;;3.05;1.60;;;;;;;;;;4979719;28;20057;-70
2023/10/07 13:13:07;;;;;;;3.00;1.88;;;;;;;;;;4980696;28;20042;-70
2023/10/07 13:15:34;;;;;;;2.88;1.67;;;;;;;;;;4980299;28;20123;-70
2023/10/07 13:18:03;;;;;;;3.53;1.63;;;;;;;;;;4979366;28;20475;-70
2023/10/07 13:20:30;;;;;;;1.92;1.40;;;;;;;;;;4977484;28;20054;-70
2023/10/07 13:22:58;;;;;;;2.83;1.65;;;;;;;;;;4979157;28;20590;-70
2023/10/07 13:25:26;;;;;;;3.28;1.77;;;;;;;;;;4979114;28;20054;-70
2023/10/07 13:27:55;;;;;;;3.38;1.80;;;;;;;;;;4979928;28;20076;-69
2023/10/07 13:30:24;;;;;;;5.55;2.10;;;;;;;;;;4979529;28;20062;-70
2023/10/07 13:32:52;;;;;;;4.63;1.73;;;;;;;;;;4979808;28;20156;-68
2023/10/07 13:35:19;;;;;;;6.78;2.13;;;;;;;;;;4981009;28;20108;-68
2023/10/07 13:37:49;;;;;;;3.40;1.70;;;;;;;;;;4978836;28;20492;-70
2023/10/07 13:40:16;;;;;;;3.30;1.70;;;;;;;;;;4978708;28;20050;-69
2023/10/07 13:42:51;;;;;;;3.00;1.67;;;;;;;;;;4980088;28;20054;-70
2023/10/07 13:45:22;;;;;;;2.45;1.90;;;;;;;;;;4979456;28;20092;-70
2023/10/07 13:47:48;;;;;;;5.30;2.55;;;;;;;;;;4979870;28;20502;-70
2023/10/07 13:50:20;;;;;;;4.80;2.45;;;;;;;;;;4979186;28;20105;-70
2023/10/07 13:52:50;;;;;;;5.30;1.70;;;;;;;;;;4979792;28;20073;-69
2023/10/07 13:56:12;;;;;;;6.05;2.03;;;;;;;;;;4979538;28;20046;-68
2023/10/07 13:58:13;;;;;;;6.47;2.13;;;;;;;;;;4975585;28;20089;-68
2023/10/07 14:00:46;;;;;;;4.00;1.98;;;;;;;;;;4979575;28;20093;-70
2023/10/07 14:03:20;;;;;;;2.47;1.60;;;;;;;;;;4979995;28;20096;-70
2023/10/07 14:05:50;;;;;;;7.00;2.10;;;;;;;;;;4979248;28;20050;-70
2023/10/07 14:08:17;;;;;;;3.92;2.22;;;;;;;;;;4979042;28;20057;-68
2023/10/07 14:10:50;;;;;;;5.47;1.90;;;;;;;;;;4979617;28;20046;-70
2023/10/07 14:13:18;;;;;;;5.22;1.90;;;;;;;;;;4978938;28;20551;-70
2023/10/07 14:15:49;;;;;;;3.28;1.80;;;;;;;;;;4978489;28;20054;-70
2023/10/07 14:18:20;;;;;;;2.67;1.70;;;;;;;;;;4978227;28;20100;-70
2023/10/07 14:20:54;;;;;;;3.03;1.77;;;;;;;;;;4979371;28;20169;-69
2023/10/07 14:23:20;;;;;;;3.53;1.85;;;;;;;;;;4979343;28;20514;-71
2023/10/07 14:25:49;;;;;;;2.40;1.58;;;;;;;;;;4979261;28;20145;-68
2023/10/07 14:28:16;;;;;;;5.30;1.75;;;;;;;;;;4977794;28;20050;-68
2023/10/07 14:30:43;;;;;;;3.97;1.98;;;;;;;;;;4978630;28;20076;-68
2023/10/07 14:33:08;;;;;;;3.03;1.50;;;;;;;;;;4979068;28;20038;-68
2023/10/07 14:35:37;;;;;;;3.33;1.75;;;;;;;;;;4978865;28;20645;-70
2023/10/07 14:38:02;;;;;;;3.58;1.90;;;;;;;;;;4978084;28;20072;-70
2023/10/07 14:40:35;;;;;;;3.58;1.67;;;;;;;;;;4978550;28;20047;-71
2023/10/07 14:43:00;;;;;;;3.88;2.08;;;;;;;;;;4979087;28;20053;-69
2023/10/07 14:45:26;;;;;;;2.90;1.85;;;;;;;;;;4978392;28;20130;-71
2023/10/07 14:47:51;;;;;;;5.43;1.58;;;;;;;;;;4978142;28;20053;-67
2023/10/07 14:50:18;;;;;;;2.53;1.50;;;;;;;;;;4977745;28;20226;-69
2023/10/07 14:52:48;;;;;;;4.68;1.95;;;;;;;;;;4982555;28;20081;-68
2023/10/07 14:55:13;;;;;;;3.35;1.77;;;;;;;;;;4982283;28;20042;-68
2023/10/07 14:57:39;;;;;;;3.63;1.52;;;;;;;;;;4982837;28;20847;-69
2023/10/07 15:00:10;;;;;;;2.55;1.60;;;;;;;;;;4980066;28;20104;-68
2023/10/07 15:02:37;;;;;;;2.60;1.70;;;;;;;;;;4981645;28;20093;-68
2023/10/07 15:05:07;;;;;;;4.57;2.00;;;;;;;;;;4981405;28;20565;-69
2023/10/07 15:07:33;;;;;;;3.22;1.90;;;;;;;;;;4980805;28;20042;-68
2023/10/07 15:09:59;;;;;;;5.13;2.33;;;;;;;;;;4996946;28;20038;-68
2023/10/07 15:12:24;;;;;;;5.55;2.58;;;;;;;;;;4982775;28;20407;-68
2023/10/07 15:14:49;;;;;;;3.22;2.10;;;;;;;;;;4981308;28;20622;-69
2023/10/07 15:17:17;;;;;;;5.95;2.17;;;;;;;;;;4981169;28;20038;-68
2023/10/07 15:19:48;;;;;;;3.78;1.80;;;;;;;;;;4981918;28;20046;-68
2023/10/07 15:22:14;;;;;;;6.00;2.10;;;;;;;;;;4996173;28;20399;-68
2023/10/07 15:24:42;;;;;;;2.53;1.60;;;;;;;;;;4980542;28;20285;-68
2023/10/07 15:27:08;;;;;;;3.53;1.80;;;;;;;;;;4982039;28;20542;-68
2023/10/07 15:29:33;;;;;;;2.63;1.58;;;;;;;;;;4982130;28;20069;-68
2023/10/07 15:31:59;;;;;;;2.30;1.60;;;;;;;;;;4981147;28;20503;-69
2023/10/07 15:34:25;;;;;;;3.45;1.42;;;;;;;;;;4981579;28;20050;-68
2023/10/07 15:36:56;;;;;;;2.95;1.60;;;;;;;;;;4963350;28;20054;-69
2023/10/07 15:39:23;;;;;;;3.07;1.40;;;;;;;;;;4981769;28;20039;-68
2023/10/07 15:41:50;;;;;;;3.75;1.83;;;;;;;;;;4981224;28;20290;-69
2023/10/07 15:44:17;;;;;;;5.43;1.48;;;;;;;;;;4980273;28;20446;-68
2023/10/07 15:46:42;;;;;;;2.42;1.60;;;;;;;;;;4981956;28;20054;-68
2023/10/07 15:49:10;;;;;;;3.40;1.77;;;;;;;;;;4981312;28;20054;-68